sensor_id;sensor_type;location;lat;lon;timestamp;pressure;altitude;pressure_sealevel;temperature;humidity
79415;BME280;68864;44.972;19.612;2023-05-14T00:01:27;100897.63;;;15.22;73.98
79415;BME280;68864;44.972;19.612;2023-05-14T00:03:54;100896.03;;;15.24;74.33
79415;BME280;68864;44.972;19.612;2023-05-14T00:06:22;100892.41;;;15.20;74.69
79415;BME280;68864;44.972;19.612;2023-05-14T00:08:49;100897.16;;;15.16;75.33
79415;BME280;68864;44.972;19.612;2023-05-14T00:11:16;100883.91;;;15.13;75.24
79415;BME280;68864;44.972;19.612;2023-05-14T00:13:42;100886.28;;;15.07;75.59
79415;BME280;68864;44.972;19.612;2023-05-14T00:16:09;100883.41;;;15.04;75.75
79415;BME280;68864;44.972;19.612;2023-05-14T00:18:36;100891.31;;;14.91;77.73
79415;BME280;68864;44.972;19.612;2023-05-14T00:21:03;100883.31;;;14.93;76.59
79415;BME280;68864;44.972;19.612;2023-05-14T00:23:31;100882.88;;;14.91;76.95
79415;BME280;68864;44.972;19.612;2023-05-14T00:25:58;100876.47;;;14.91;76.30
79415;BME280;68864;44.972;19.612;2023-05-14T00:28:24;100877.19;;;14.84;76.72
79415;BME280;68864;44.972;19.612;2023-05-14T00:30:51;100876.44;;;14.87;76.88
79415;BME280;68864;44.972;19.612;2023-05-14T00:33:18;100873.19;;;14.85;77.13
79415;BME280;68864;44.972;19.612;2023-05-14T00:35:45;100871.97;;;14.83;77.10
79415;BME280;68864;44.972;19.612;2023-05-14T00:38:11;100871.59;;;14.84;77.26
79415;BME280;68864;44.972;19.612;2023-05-14T00:40:43;100866.31;;;14.79;78.34
79415;BME280;68864;44.972;19.612;2023-05-14T00:43:15;100873.94;;;14.79;77.77
79415;BME280;68864;44.972;19.612;2023-05-14T00:45:42;100862.69;;;14.75;77.96
79415;BME280;68864;44.972;19.612;2023-05-14T00:48:09;100862.94;;;14.63;79.75
79415;BME280;68864;44.972;19.612;2023-05-14T00:50:35;100856.56;;;14.66;78.17
79415;BME280;68864;44.972;19.612;2023-05-14T00:53:03;100859.38;;;14.66;78.77
79415;BME280;68864;44.972;19.612;2023-05-14T00:55:34;100840.13;;;14.64;78.53
79415;BME280;68864;44.972;19.612;2023-05-14T00:58:04;100844.09;;;14.63;79.13
79415;BME280;68864;44.972;19.612;2023-05-14T01:00:32;100845.69;;;14.61;78.75
79415;BME280;68864;44.972;19.612;2023-05-14T01:02:59;100852.97;;;14.65;79.05
79415;BME280;68864;44.972;19.612;2023-05-14T01:05:31;100842.53;;;14.66;79.44
79415;BME280;68864;44.972;19.612;2023-05-14T01:08:05;100819.50;;;14.50;79.32
79415;BME280;68864;44.972;19.612;2023-05-14T01:10:38;100835.28;;;14.61;79.69
79415;BME280;68864;44.972;19.612;2023-05-14T01:13:12;100835.66;;;14.60;80.28
79415;BME280;68864;44.972;19.612;2023-05-14T01:15:46;100812.53;;;14.37;79.36
79415;BME280;68864;44.972;19.612;2023-05-14T01:18:16;100845.63;;;14.54;79.89
79415;BME280;68864;44.972;19.612;2023-05-14T01:20:44;100840.81;;;14.54;79.93
79415;BME280;68864;44.972;19.612;2023-05-14T01:23:12;100851.91;;;14.44;80.96
79415;BME280;68864;44.972;19.612;2023-05-14T01:25:39;100842.34;;;14.48;79.84
79415;BME280;68864;44.972;19.612;2023-05-14T01:28:12;100851.59;;;14.49;81.28
79415;BME280;68864;44.972;19.612;2023-05-14T01:30:47;100858.41;;;14.51;80.58
79415;BME280;68864;44.972;19.612;2023-05-14T01:33:17;100867.19;;;14.50;80.53
79415;BME280;68864;44.972;19.612;2023-05-14T01:35:45;100855.16;;;14.49;80.39
79415;BME280;68864;44.972;19.612;2023-05-14T01:38:16;100863.94;;;14.44;81.89
79415;BME280;68864;44.972;19.612;2023-05-14T01:40:44;100851.91;;;14.44;81.23
79415;BME280;68864;44.972;19.612;2023-05-14T01:43:15;100855.88;;;14.39;81.99
79415;BME280;68864;44.972;19.612;2023-05-14T01:45:52;100854.59;;;14.37;81.05
79415;BME280;68864;44.972;19.612;2023-05-14T01:48:20;100870.31;;;14.41;81.25
79415;BME280;68864;44.972;19.612;2023-05-14T01:50:46;100865.00;;;14.36;81.65
79415;BME280;68864;44.972;19.612;2023-05-14T01:53:15;100868.59;;;14.37;81.86
79415;BME280;68864;44.972;19.612;2023-05-14T01:55:41;100859.78;;;14.35;81.56
79415;BME280;68864;44.972;19.612;2023-05-14T01:58:08;100858.19;;;14.37;81.44
79415;BME280;68864;44.972;19.612;2023-05-14T02:00:35;100845.38;;;14.36;81.66
79415;BME280;68864;44.972;19.612;2023-05-14T02:03:02;100840.53;;;14.33;81.87
79415;BME280;68864;44.972;19.612;2023-05-14T02:05:29;100838.53;;;14.33;81.67
79415;BME280;68864;44.972;19.612;2023-05-14T02:07:56;100831.28;;;14.29;81.37
79415;BME280;68864;44.972;19.612;2023-05-14T02:10:24;100828.84;;;14.27;82.10
79415;BME280;68864;44.972;19.612;2023-05-14T02:12:51;100828.47;;;14.29;81.65
79415;BME280;68864;44.972;19.612;2023-05-14T02:15:17;100823.63;;;14.26;81.63
79415;BME280;68864;44.972;19.612;2023-05-14T02:17:44;100836.03;;;14.25;81.54
79415;BME280;68864;44.972;19.612;2023-05-14T02:20:12;100827.19;;;14.23;81.79
79415;BME280;68864;44.972;19.612;2023-05-14T02:22:38;100821.13;;;14.17;81.57
79415;BME280;68864;44.972;19.612;2023-05-14T02:25:07;100814.31;;;14.18;81.61
79415;BME280;68864;44.972;19.612;2023-05-14T02:27:36;100811.53;;;14.18;81.19
79415;BME280;68864;44.972;19.612;2023-05-14T02:30:03;100815.91;;;14.16;81.24
79415;BME280;68864;44.972;19.612;2023-05-14T02:32:30;100819.91;;;14.15;81.34
79415;BME280;68864;44.972;19.612;2023-05-14T02:34:57;100807.44;;;14.12;81.02
79415;BME280;68864;44.972;19.612;2023-05-14T02:37:24;100801.41;;;14.10;80.97
79415;BME280;68864;44.972;19.612;2023-05-14T02:39:50;100790.16;;;14.07;81.26
79415;BME280;68864;44.972;19.612;2023-05-14T02:42:17;100795.78;;;14.10;81.30
79415;BME280;68864;44.972;19.612;2023-05-14T02:44:45;100793.00;;;14.10;80.77
79415;BME280;68864;44.972;19.612;2023-05-14T02:47:12;100796.94;;;14.06;80.15
79415;BME280;68864;44.972;19.612;2023-05-14T02:49:39;100785.72;;;14.02;80.58
79415;BME280;68864;44.972;19.612;2023-05-14T02:52:06;100779.59;;;13.97;80.46
79415;BME280;68864;44.972;19.612;2023-05-14T02:54:33;100778.78;;;13.92;80.08
79415;BME280;68864;44.972;19.612;2023-05-14T02:57:00;100778.69;;;13.85;79.29
79415;BME280;68864;44.972;19.612;2023-05-14T02:59:26;100779.84;;;13.81;78.73
79415;BME280;68864;44.972;19.612;2023-05-14T03:01:55;100780.53;;;13.74;78.99
79415;BME280;68864;44.972;19.612;2023-05-14T03:04:22;100766.78;;;13.62;78.51
79415;BME280;68864;44.972;19.612;2023-05-14T03:06:48;100772.41;;;13.66;78.61
79415;BME280;68864;44.972;19.612;2023-05-14T03:09:15;100770.00;;;13.64;78.44
79415;BME280;68864;44.972;19.612;2023-05-14T03:11:42;100764.25;;;13.53;78.07
79415;BME280;68864;44.972;19.612;2023-05-14T03:14:09;100763.47;;;13.57;78.23
79415;BME280;68864;44.972;19.612;2023-05-14T03:16:35;100773.84;;;13.52;78.08
79415;BME280;68864;44.972;19.612;2023-05-14T03:19:03;100771.81;;;13.49;78.15
79415;BME280;68864;44.972;19.612;2023-05-14T03:21:30;100761.13;;;13.32;77.57
79415;BME280;68864;44.972;19.612;2023-05-14T03:23:57;100773.72;;;13.45;77.62
79415;BME280;68864;44.972;19.612;2023-05-14T03:26:24;100754.41;;;13.37;77.24
79415;BME280;68864;44.972;19.612;2023-05-14T03:28:50;100768.13;;;13.45;77.04
79415;BME280;68864;44.972;19.612;2023-05-14T03:31:17;100774.50;;;13.42;77.28
79415;BME280;68864;44.972;19.612;2023-05-14T03:33:44;100780.03;;;13.39;77.01
79415;BME280;68864;44.972;19.612;2023-05-14T03:36:12;100767.91;;;13.31;77.21
79415;BME280;68864;44.972;19.612;2023-05-14T03:38:39;100770.72;;;13.31;77.15
79415;BME280;68864;44.972;19.612;2023-05-14T03:41:06;100773.59;;;13.35;77.02
79415;BME280;68864;44.972;19.612;2023-05-14T03:43:33;100771.97;;;13.34;77.08
79415;BME280;68864;44.972;19.612;2023-05-14T03:45:59;100774.78;;;13.34;77.22
79415;BME280;68864;44.972;19.612;2023-05-14T03:48:26;100765.09;;;13.28;77.17
79415;BME280;68864;44.972;19.612;2023-05-14T03:50:53;100769.97;;;13.34;76.88
79415;BME280;68864;44.972;19.612;2023-05-14T03:53:21;100755.97;;;13.34;77.32
79415;BME280;68864;44.972;19.612;2023-05-14T03:55:48;100757.59;;;13.35;76.96
79415;BME280;68864;44.972;19.612;2023-05-14T03:58:14;100761.22;;;13.36;77.19
79415;BME280;68864;44.972;19.612;2023-05-14T04:00:42;100761.63;;;13.38;76.61
79415;BME280;68864;44.972;19.612;2023-05-14T04:03:09;100754.41;;;13.37;76.57
79415;BME280;68864;44.972;19.612;2023-05-14T04:05:36;100750.41;;;13.38;77.11
79415;BME280;68864;44.972;19.612;2023-05-14T04:08:02;100753.94;;;13.31;76.84
79415;BME280;68864;44.972;19.612;2023-05-14T04:10:30;100751.56;;;13.33;76.75
79415;BME280;68864;44.972;19.612;2023-05-14T04:12:57;100757.97;;;13.34;76.55
79415;BME280;68864;44.972;19.612;2023-05-14T04:15:24;100747.50;;;13.31;76.92
79415;BME280;68864;44.972;19.612;2023-05-14T04:17:51;100751.50;;;13.30;77.11
79415;BME280;68864;44.972;19.612;2023-05-14T04:20:18;100755.88;;;13.27;77.11
79415;BME280;68864;44.972;19.612;2023-05-14T04:22:53;100747.00;;;13.22;77.25
79415;BME280;68864;44.972;19.612;2023-05-14T04:25:20;100754.22;;;13.23;77.34
79415;BME280;68864;44.972;19.612;2023-05-14T04:28:01;100744.94;;;13.19;77.25
79415;BME280;68864;44.972;19.612;2023-05-14T04:30:57;100739.56;;;13.10;77.78
79415;BME280;68864;44.972;19.612;2023-05-14T04:33:35;100745.28;;;13.13;77.54
79415;BME280;68864;44.972;19.612;2023-05-14T04:36:02;100744.47;;;13.13;77.33
79415;BME280;68864;44.972;19.612;2023-05-14T04:38:35;100747.25;;;13.13;77.95
79415;BME280;68864;44.972;19.612;2023-05-14T04:41:22;100745.94;;;13.07;78.35
79415;BME280;68864;44.972;19.612;2023-05-14T04:43:54;100733.91;;;13.03;78.41
79415;BME280;68864;44.972;19.612;2023-05-14T04:46:37;100705.13;;;12.80;77.60
79415;BME280;68864;44.972;19.612;2023-05-14T04:49:04;100739.44;;;12.99;77.66
79415;BME280;68864;44.972;19.612;2023-05-14T04:51:51;100686.91;;;12.63;77.99
79415;BME280;68864;44.972;19.612;2023-05-14T04:54:19;100728.59;;;12.98;77.71
79415;BME280;68864;44.972;19.612;2023-05-14T04:56:46;100721.72;;;12.92;77.36
79415;BME280;68864;44.972;19.612;2023-05-14T04:59:14;100717.28;;;12.91;77.42
79415;BME280;68864;44.972;19.612;2023-05-14T05:01:41;100711.78;;;12.94;77.24
79415;BME280;68864;44.972;19.612;2023-05-14T05:04:09;100707.84;;;12.99;77.13
79415;BME280;68864;44.972;19.612;2023-05-14T05:06:36;100719.84;;;12.99;77.74
79415;BME280;68864;44.972;19.612;2023-05-14T05:09:03;100712.25;;;13.00;77.12
79415;BME280;68864;44.972;19.612;2023-05-14T05:11:30;100713.06;;;13.00;77.07
79415;BME280;68864;44.972;19.612;2023-05-14T05:13:56;100715.78;;;12.97;77.06
79415;BME280;68864;44.972;19.612;2023-05-14T05:16:24;100712.22;;;12.96;77.66
79415;BME280;68864;44.972;19.612;2023-05-14T05:18:51;100720.66;;;13.00;76.99
79415;BME280;68864;44.972;19.612;2023-05-14T05:21:18;100723.44;;;13.00;77.55
79415;BME280;68864;44.972;19.612;2023-05-14T05:23:44;100734.31;;;13.05;77.35
79415;BME280;68864;44.972;19.612;2023-05-14T05:26:11;100727.91;;;13.04;77.08
79415;BME280;68864;44.972;19.612;2023-05-14T05:28:38;100709.13;;;13.05;77.37
79415;BME280;68864;44.972;19.612;2023-05-14T05:31:05;100717.97;;;13.07;77.84
79415;BME280;68864;44.972;19.612;2023-05-14T05:33:33;100709.56;;;13.07;77.57
79415;BME280;68864;44.972;19.612;2023-05-14T05:36:00;100698.38;;;13.07;77.57
79415;BME280;68864;44.972;19.612;2023-05-14T05:38:27;100697.94;;;13.05;77.51
79415;BME280;68864;44.972;19.612;2023-05-14T05:40:54;100704.41;;;13.09;77.45
79415;BME280;68864;44.972;19.612;2023-05-14T05:43:20;100698.81;;;13.09;78.07
79415;BME280;68864;44.972;19.612;2023-05-14T05:45:47;100696.41;;;13.11;77.90
79415;BME280;68864;44.972;19.612;2023-05-14T05:48:14;100692.44;;;13.12;77.56
79415;BME280;68864;44.972;19.612;2023-05-14T05:50:43;100696.88;;;13.13;78.47
79415;BME280;68864;44.972;19.612;2023-05-14T05:53:11;100698.94;;;13.16;77.54
79415;BME280;68864;44.972;19.612;2023-05-14T05:55:41;100685.78;;;13.20;77.52
79415;BME280;68864;44.972;19.612;2023-05-14T05:58:07;100688.59;;;13.20;77.52
79415;BME280;68864;44.972;19.612;2023-05-14T06:00:34;100648.84;;;13.11;77.48
79415;BME280;68864;44.972;19.612;2023-05-14T06:03:01;100665.13;;;13.28;77.17
79415;BME280;68864;44.972;19.612;2023-05-14T06:05:28;100682.31;;;13.30;77.38
79415;BME280;68864;44.972;19.612;2023-05-14T06:07:56;100651.13;;;13.28;77.30
79415;BME280;68864;44.972;19.612;2023-05-14T06:10:22;100665.53;;;13.30;77.05
79415;BME280;68864;44.972;19.612;2023-05-14T06:12:49;100660.81;;;13.34;77.65
79415;BME280;68864;44.972;19.612;2023-05-14T06:15:16;100674.81;;;13.34;77.17
79415;BME280;68864;44.972;19.612;2023-05-14T06:17:43;100678.00;;;13.36;77.52
79415;BME280;68864;44.972;19.612;2023-05-14T06:20:10;100669.66;;;13.40;77.59
79415;BME280;68864;44.972;19.612;2023-05-14T06:22:37;100669.19;;;13.34;77.77
79415;BME280;68864;44.972;19.612;2023-05-14T06:25:06;100670.41;;;13.37;78.12
79415;BME280;68864;44.972;19.612;2023-05-14T06:27:33;100670.47;;;13.40;77.98
79415;BME280;68864;44.972;19.612;2023-05-14T06:30:00;100673.31;;;13.44;77.45
79415;BME280;68864;44.972;19.612;2023-05-14T06:32:27;100692.50;;;13.42;77.83
79415;BME280;68864;44.972;19.612;2023-05-14T06:34:54;100674.13;;;13.44;77.71
79415;BME280;68864;44.972;19.612;2023-05-14T06:37:20;100660.94;;;13.45;77.09
79415;BME280;68864;44.972;19.612;2023-05-14T06:39:47;100668.09;;;13.42;77.44
79415;BME280;68864;44.972;19.612;2023-05-14T06:42:16;100662.88;;;13.41;77.48
79415;BME280;68864;44.972;19.612;2023-05-14T06:44:43;100665.31;;;13.42;77.84
79415;BME280;68864;44.972;19.612;2023-05-14T06:47:10;100652.44;;;13.38;78.03
79415;BME280;68864;44.972;19.612;2023-05-14T06:49:37;100662.53;;;13.46;78.08
79415;BME280;68864;44.972;19.612;2023-05-14T06:52:05;100649.72;;;13.45;78.04
79415;BME280;68864;44.972;19.612;2023-05-14T06:54:31;100656.13;;;13.45;78.30
79415;BME280;68864;44.972;19.612;2023-05-14T06:56:58;100648.59;;;13.49;78.04
79415;BME280;68864;44.972;19.612;2023-05-14T06:59:26;100655.38;;;13.48;79.11
79415;BME280;68864;44.972;19.612;2023-05-14T07:01:53;100642.94;;;13.46;78.75
79415;BME280;68864;44.972;19.612;2023-05-14T07:04:20;100642.50;;;13.44;79.23
79415;BME280;68864;44.972;19.612;2023-05-14T07:06:46;100650.88;;;13.40;79.45
79415;BME280;68864;44.972;19.612;2023-05-14T07:09:14;100658.03;;;13.38;79.90
79415;BME280;68864;44.972;19.612;2023-05-14T07:11:42;100648.69;;;13.27;80.88
79415;BME280;68864;44.972;19.612;2023-05-14T07:14:09;100649.44;;;13.24;80.49
79415;BME280;68864;44.972;19.612;2023-05-14T07:16:37;100638.22;;;13.20;80.78
79415;BME280;68864;44.972;19.612;2023-05-14T07:19:04;100638.97;;;13.17;81.27
79415;BME280;68864;44.972;19.612;2023-05-14T07:21:31;100629.34;;;13.15;81.54
79415;BME280;68864;44.972;19.612;2023-05-14T07:23:58;100642.16;;;13.16;81.92
79415;BME280;68864;44.972;19.612;2023-05-14T07:26:24;100616.44;;;13.10;82.26
79415;BME280;68864;44.972;19.612;2023-05-14T07:28:51;100628.53;;;13.14;82.08
79415;BME280;68864;44.972;19.612;2023-05-14T07:31:18;100626.94;;;13.13;82.06
79415;BME280;68864;44.972;19.612;2023-05-14T07:33:46;100603.00;;;13.19;82.45
79415;BME280;68864;44.972;19.612;2023-05-14T07:36:13;100608.25;;;13.21;82.50
79415;BME280;68864;44.972;19.612;2023-05-14T07:38:40;100599.78;;;13.17;83.06
79415;BME280;68864;44.972;19.612;2023-05-14T07:41:06;100592.66;;;13.23;83.06
79415;BME280;68864;44.972;19.612;2023-05-14T07:43:33;100589.09;;;13.26;82.77
79415;BME280;68864;44.972;19.612;2023-05-14T07:46:00;100609.50;;;13.27;83.40
79415;BME280;68864;44.972;19.612;2023-05-14T07:48:27;100580.38;;;13.31;82.74
79415;BME280;68864;44.972;19.612;2023-05-14T07:50:55;100568.78;;;13.29;83.07
79415;BME280;68864;44.972;19.612;2023-05-14T07:53:21;100561.97;;;13.30;82.62
79415;BME280;68864;44.972;19.612;2023-05-14T07:55:49;100588.81;;;13.35;83.92
79415;BME280;68864;44.972;19.612;2023-05-14T07:58:16;100579.28;;;13.39;83.05
79415;BME280;68864;44.972;19.612;2023-05-14T08:00:42;100584.91;;;13.43;82.96
79415;BME280;68864;44.972;19.612;2023-05-14T08:03:09;100575.31;;;13.44;82.45
79415;BME280;68864;44.972;19.612;2023-05-14T08:05:36;100577.78;;;13.49;83.00
79415;BME280;68864;44.972;19.612;2023-05-14T08:08:04;100582.59;;;13.52;83.23
79415;BME280;68864;44.972;19.612;2023-05-14T08:10:31;100568.22;;;13.53;82.74
79415;BME280;68864;44.972;19.612;2023-05-14T08:12:58;100563.44;;;13.54;83.41
79415;BME280;68864;44.972;19.612;2023-05-14T08:15:24;100575.84;;;13.57;83.13
79415;BME280;68864;44.972;19.612;2023-05-14T08:17:51;100547.47;;;13.58;82.96
79415;BME280;68864;44.972;19.612;2023-05-14T08:20:18;100590.72;;;13.61;83.50
79415;BME280;68864;44.972;19.612;2023-05-14T08:22:45;100552.72;;;13.63;82.69
79415;BME280;68864;44.972;19.612;2023-05-14T08:25:13;100569.50;;;13.63;82.66
79415;BME280;68864;44.972;19.612;2023-05-14T08:27:40;100554.75;;;13.66;83.10
79415;BME280;68864;44.972;19.612;2023-05-14T08:30:07;100562.78;;;13.68;82.95
79415;BME280;68864;44.972;19.612;2023-05-14T08:32:34;100542.78;;;13.69;82.33
79415;BME280;68864;44.972;19.612;2023-05-14T08:35:02;100542.00;;;13.72;82.65
79415;BME280;68864;44.972;19.612;2023-05-14T08:37:29;100542.38;;;13.71;81.57
79415;BME280;68864;44.972;19.612;2023-05-14T08:39:56;100563.59;;;13.72;81.58
79415;BME280;68864;44.972;19.612;2023-05-14T08:42:25;100565.97;;;13.70;82.07
79415;BME280;68864;44.972;19.612;2023-05-14T08:44:57;100568.47;;;13.75;81.37
79415;BME280;68864;44.972;19.612;2023-05-14T08:47:26;100564.41;;;13.72;81.56
79415;BME280;68864;44.972;19.612;2023-05-14T08:50:00;100563.59;;;13.72;81.71
79415;BME280;68864;44.972;19.612;2023-05-14T08:52:27;100556.44;;;13.74;81.29
79415;BME280;68864;44.972;19.612;2023-05-14T08:54:54;100552.84;;;13.74;81.29
79415;BME280;68864;44.972;19.612;2023-05-14T08:57:22;100528.44;;;13.74;81.36
79415;BME280;68864;44.972;19.612;2023-05-14T08:59:52;100508.38;;;13.69;81.73
79415;BME280;68864;44.972;19.612;2023-05-14T09:02:22;100528.50;;;13.85;81.88
79415;BME280;68864;44.972;19.612;2023-05-14T09:04:54;100520.09;;;13.85;81.84
79415;BME280;68864;44.972;19.612;2023-05-14T09:07:22;100524.53;;;13.89;81.89
79415;BME280;68864;44.972;19.612;2023-05-14T09:09:49;100530.19;;;13.93;81.67
79415;BME280;68864;44.972;19.612;2023-05-14T09:12:16;100510.50;;;13.82;81.97
79415;BME280;68864;44.972;19.612;2023-05-14T09:14:43;100519.00;;;13.97;81.69
79415;BME280;68864;44.972;19.612;2023-05-14T09:17:11;100514.19;;;13.97;82.17
79415;BME280;68864;44.972;19.612;2023-05-14T09:19:38;100490.22;;;14.03;81.38
79415;BME280;68864;44.972;19.612;2023-05-14T09:22:07;100488.59;;;13.99;82.53
79415;BME280;68864;44.972;19.612;2023-05-14T09:24:34;100508.66;;;14.04;81.44
79415;BME280;68864;44.972;19.612;2023-05-14T09:27:01;100512.38;;;14.15;81.47
79415;BME280;68864;44.972;19.612;2023-05-14T09:29:28;100485.91;;;14.09;81.53
79415;BME280;68864;44.972;19.612;2023-05-14T09:31:56;100482.78;;;14.25;81.87
79415;BME280;68864;44.972;19.612;2023-05-14T09:34:25;100492.06;;;14.36;81.46
79415;BME280;68864;44.972;19.612;2023-05-14T09:36:56;100481.72;;;14.44;81.77
79415;BME280;68864;44.972;19.612;2023-05-14T09:39:23;100472.97;;;14.49;81.61
79415;BME280;68864;44.972;19.612;2023-05-14T09:41:50;100463.34;;;14.57;81.04
79415;BME280;68864;44.972;19.612;2023-05-14T09:44:18;100488.22;;;14.58;80.87
79415;BME280;68864;44.972;19.612;2023-05-14T09:46:44;100485.41;;;14.58;81.44
79415;BME280;68864;44.972;19.612;2023-05-14T09:49:11;100476.22;;;14.65;80.00
79415;BME280;68864;44.972;19.612;2023-05-14T09:51:39;100522.34;;;14.71;79.69
79415;BME280;68864;44.972;19.612;2023-05-14T09:54:07;100483.06;;;14.71;79.76
79415;BME280;68864;44.972;19.612;2023-05-14T09:56:35;100467.47;;;14.74;79.78
79415;BME280;68864;44.972;19.612;2023-05-14T09:59:02;100471.88;;;14.78;79.84
79415;BME280;68864;44.972;19.612;2023-05-14T10:01:30;100482.72;;;14.83;79.91
79415;BME280;68864;44.972;19.612;2023-05-14T10:03:57;100489.97;;;14.88;80.06
79415;BME280;68864;44.972;19.612;2023-05-14T10:06:27;100496.38;;;14.92;80.39
79415;BME280;68864;44.972;19.612;2023-05-14T10:08:56;100473.13;;;14.91;80.05
79415;BME280;68864;44.972;19.612;2023-05-14T10:11:27;100501.22;;;14.98;79.65
79415;BME280;68864;44.972;19.612;2023-05-14T10:14:01;100490.41;;;15.00;79.94
79415;BME280;68864;44.972;19.612;2023-05-14T10:16:32;100466.38;;;15.06;80.16
79415;BME280;68864;44.972;19.612;2023-05-14T10:19:03;100456.34;;;15.13;79.97
79415;BME280;68864;44.972;19.612;2023-05-14T10:21:34;100458.00;;;15.21;79.78
79415;BME280;68864;44.972;19.612;2023-05-14T10:24:04;100439.16;;;15.28;79.83
79415;BME280;68864;44.972;19.612;2023-05-14T10:26:31;100419.50;;;15.39;79.60
79415;BME280;68864;44.972;19.612;2023-05-14T10:28:59;100442.38;;;15.48;79.11
79415;BME280;68864;44.972;19.612;2023-05-14T10:31:47;100417.94;;;15.56;79.40
79415;BME280;68864;44.972;19.612;2023-05-14T10:34:31;100433.19;;;15.69;79.83
79415;BME280;68864;44.972;19.612;2023-05-14T10:36:58;100427.56;;;15.76;79.12
79415;BME280;68864;44.972;19.612;2023-05-14T10:39:44;100430.72;;;16.03;78.52
79415;BME280;68864;44.972;19.612;2023-05-14T10:42:19;100432.59;;;16.62;75.93
79415;BME280;68864;44.972;19.612;2023-05-14T10:44:50;100431.41;;;16.49;76.42
79415;BME280;68864;44.972;19.612;2023-05-14T10:47:17;100417.31;;;16.56;76.17
79415;BME280;68864;44.972;19.612;2023-05-14T10:49:45;100402.44;;;16.63;76.30
79415;BME280;68864;44.972;19.612;2023-05-14T10:52:16;100403.22;;;16.71;75.04
79415;BME280;68864;44.972;19.612;2023-05-14T10:54:51;100411.25;;;16.76;74.92
79415;BME280;68864;44.972;19.612;2023-05-14T10:57:21;100404.38;;;16.84;74.88
79415;BME280;68864;44.972;19.612;2023-05-14T10:59:50;100393.91;;;16.88;74.81
79415;BME280;68864;44.972;19.612;2023-05-14T11:02:21;100427.66;;;16.91;74.93
79415;BME280;68864;44.972;19.612;2023-05-14T11:04:53;100418.00;;;16.92;74.55
79415;BME280;68864;44.972;19.612;2023-05-14T11:07:24;100391.88;;;16.92;74.84
79415;BME280;68864;44.972;19.612;2023-05-14T11:09:53;100414.38;;;16.92;74.65
79415;BME280;68864;44.972;19.612;2023-05-14T11:12:26;100404.72;;;16.93;74.33
79415;BME280;68864;44.972;19.612;2023-05-14T11:14:53;100391.06;;;16.91;74.13
79415;BME280;68864;44.972;19.612;2023-05-14T11:17:22;100371.00;;;16.86;74.30
79415;BME280;68864;44.972;19.612;2023-05-14T11:19:49;100383.38;;;16.99;74.19
79415;BME280;68864;44.972;19.612;2023-05-14T11:22:16;100376.50;;;17.03;74.19
79415;BME280;68864;44.972;19.612;2023-05-14T11:24:43;100366.03;;;17.07;74.46
79415;BME280;68864;44.972;19.612;2023-05-14T11:27:10;100370.81;;;17.14;74.40
79415;BME280;68864;44.972;19.612;2023-05-14T11:29:42;100383.59;;;17.22;74.58
79415;BME280;68864;44.972;19.612;2023-05-14T11:32:12;100373.53;;;17.25;74.37
79415;BME280;68864;44.972;19.612;2023-05-14T11:34:39;100353.00;;;17.28;74.42
79415;BME280;68864;44.972;19.612;2023-05-14T11:37:06;100365.06;;;17.28;74.82
79415;BME280;68864;44.972;19.612;2023-05-14T11:39:33;100370.63;;;17.35;74.69
79415;BME280;68864;44.972;19.612;2023-05-14T11:42:02;100362.97;;;17.39;73.67
79415;BME280;68864;44.972;19.612;2023-05-14T11:44:30;100379.47;;;17.41;74.32
79415;BME280;68864;44.972;19.612;2023-05-14T11:46:58;100389.13;;;17.40;73.25
79415;BME280;68864;44.972;19.612;2023-05-14T11:49:27;100387.13;;;17.37;73.46
79415;BME280;68864;44.972;19.612;2023-05-14T11:51:57;100389.19;;;17.33;73.66
79415;BME280;68864;44.972;19.612;2023-05-14T11:54:25;100378.31;;;17.31;73.45
79415;BME280;68864;44.972;19.612;2023-05-14T11:56:53;100381.53;;;17.33;73.61
79415;BME280;68864;44.972;19.612;2023-05-14T11:59:20;100371.47;;;17.32;73.85
79415;BME280;68864;44.972;19.612;2023-05-14T12:01:47;100370.31;;;17.26;74.39
79415;BME280;68864;44.972;19.612;2023-05-14T12:04:15;100366.22;;;17.34;73.97
79415;BME280;68864;44.972;19.612;2023-05-14T12:06:47;100370.63;;;17.35;74.32
79415;BME280;68864;44.972;19.612;2023-05-14T12:09:21;100359.34;;;17.35;74.04
79415;BME280;68864;44.972;19.612;2023-05-14T12:11:50;100361.75;;;17.37;73.93
79415;BME280;68864;44.972;19.612;2023-05-14T12:14:18;100338.00;;;17.38;74.01
79415;BME280;68864;44.972;19.612;2023-05-14T12:16:45;100341.63;;;17.38;74.20
79415;BME280;68864;44.972;19.612;2023-05-14T12:19:15;100337.19;;;17.41;74.13
79415;BME280;68864;44.972;19.612;2023-05-14T12:21:42;100326.75;;;17.38;74.20
79415;BME280;68864;44.972;19.612;2023-05-14T12:24:11;100330.75;;;17.40;74.24
79415;BME280;68864;44.972;19.612;2023-05-14T12:26:44;100324.69;;;17.42;74.39
79415;BME280;68864;44.972;19.612;2023-05-14T12:29:13;100321.44;;;17.43;74.26
79415;BME280;68864;44.972;19.612;2023-05-14T12:31:44;100296.91;;;17.44;74.17
79415;BME280;68864;44.972;19.612;2023-05-14T12:34:11;100282.41;;;17.45;74.25
79415;BME280;68864;44.972;19.612;2023-05-14T12:36:39;100285.16;;;17.49;74.40
79415;BME280;68864;44.972;19.612;2023-05-14T12:39:07;100284.28;;;17.56;74.30
79415;BME280;68864;44.972;19.612;2023-05-14T12:41:34;100272.19;;;17.62;74.41
79415;BME280;68864;44.972;19.612;2023-05-14T12:44:02;100283.81;;;17.68;73.98
79415;BME280;68864;44.972;19.612;2023-05-14T12:46:29;100270.09;;;17.70;73.59